Terminal Aerodrome Forecast
Issued by NWS

Home | Current Version | Previous Version | Text Only | Print | Product List | Glossary On
Versions: 1 2 3 4 5 6 7 8 9 10 11 12 13
391
FTUS46 KLOX 250539
TAFSBA
TAF
KSBA 250539Z 2506/2606 VRB03KT P6SM SKC
     FM251200 VRB03KT P6SM BKN025 OVC035
     FM251700 23006KT P6SM SCT025 BKN040
     FM252100 26012KT P6SM SCT250
     FM260400 VRB03KT P6SM SCT250=

USA.gov is the U.S. government's official web portal to all federal, state and local government web resources and services.